createdAt,value
2022-12-22T00:02:07.449Z,100428.72
2022-12-22T00:04:48.693Z,100419.59
2022-12-22T00:07:29.496Z,100428.63
2022-12-22T00:10:10.299Z,100423.41
2022-12-22T00:12:53.557Z,100429.47
2022-12-22T00:15:36.450Z,100419.13
2022-12-22T00:18:18.311Z,100420.66
2022-12-22T00:20:59.195Z,100419.69
2022-12-22T00:23:40.198Z,100413.34
2022-12-22T00:26:21.718Z,100404.03
2022-12-22T00:29:04.381Z,100412.00
2022-12-22T00:31:46.384Z,100406.88
2022-12-22T00:34:33.492Z,100407.84
2022-12-22T00:37:14.550Z,100410.09
2022-12-22T00:39:55.594Z,100403.91
2022-12-22T00:42:36.478Z,100402.59
2022-12-22T00:45:18.913Z,100407.44
2022-12-22T00:48:01.361Z,100394.41
2022-12-22T00:50:48.434Z,100400.31
2022-12-22T00:53:29.329Z,100393.75
2022-12-22T00:56:10.161Z,100390.44
2022-12-22T00:58:51.545Z,100387.59
2022-12-22T01:01:34.334Z,100377.97
2022-12-22T01:04:15.454Z,100379.97
2022-12-22T01:06:56.313Z,100378.59
2022-12-22T01:09:37.685Z,100377.00
2022-12-22T01:12:19.032Z,100383.25
2022-12-22T01:14:59.857Z,100381.88
2022-12-22T01:17:42.324Z,100381.59
2022-12-22T01:20:25.197Z,100382.31
2022-12-22T01:23:07.198Z,100376.41
2022-12-22T01:25:48.137Z,100363.19
2022-12-22T01:28:34.302Z,100364.31
2022-12-22T01:31:15.165Z,100362.66
2022-12-22T01:33:57.393Z,100353.44
2022-12-22T01:36:38.327Z,100351.94
2022-12-22T01:39:19.259Z,100357.53
2022-12-22T01:42:00.536Z,100348.25
2022-12-22T01:44:41.683Z,100341.53
2022-12-22T01:47:56.095Z,100343.03
2022-12-22T01:50:45.072Z,100328.34
2022-12-22T01:53:31.269Z,100318.63
2022-12-22T01:56:13.000Z,100314.72
2022-12-22T01:59:00.039Z,100310.34
2022-12-22T02:01:41.003Z,100312.69
2022-12-22T02:04:22.154Z,100302.75
2022-12-22T02:07:05.496Z,100307.69
2022-12-22T02:09:58.380Z,100310.84
2022-12-22T02:12:47.271Z,100311.94
2022-12-22T02:15:41.737Z,100305.09
2022-12-22T02:18:29.212Z,100302.63
2022-12-22T02:21:14.671Z,100292.06
2022-12-22T02:24:19.384Z,100290.88
2022-12-22T02:27:05.345Z,100277.53
2022-12-22T02:29:51.790Z,100279.69
2022-12-22T02:32:33.447Z,100277.38
2022-12-22T02:35:14.644Z,100269.16
2022-12-22T02:38:05.850Z,100268.00
2022-12-22T02:40:52.338Z,100272.47
2022-12-22T02:43:48.765Z,100260.38
2022-12-22T02:46:39.109Z,100261.00
2022-12-22T02:49:24.803Z,100264.81
2022-12-22T02:52:13.984Z,100261.69
2022-12-22T02:54:55.422Z,100259.47
2022-12-22T02:57:37.853Z,100253.50
2022-12-22T03:00:20.471Z,100245.34
2022-12-22T03:03:01.453Z,100246.50
2022-12-22T03:05:42.559Z,100240.84
2022-12-22T03:08:23.686Z,100235.63
2022-12-22T03:11:04.957Z,100230.34
2022-12-22T03:13:45.890Z,100223.06
2022-12-22T03:16:28.460Z,100224.53
2022-12-22T03:19:09.578Z,100230.75
2022-12-22T03:21:51.165Z,100221.16
2022-12-22T03:24:32.060Z,100223.97
2022-12-22T03:26:55.724Z,100228.22
2022-12-22T03:29:19.330Z,100225.22
2022-12-22T03:31:44.763Z,100221.38
2022-12-22T03:34:08.407Z,100219.59
2022-12-22T03:36:32.136Z,100209.38
2022-12-22T03:38:55.715Z,100206.84
2022-12-22T03:41:33.221Z,100203.72
2022-12-22T03:44:14.270Z,100196.66
2022-12-22T03:46:38.029Z,100195.81
2022-12-22T03:49:11.708Z,100186.47
2022-12-22T03:51:36.293Z,100192.03
2022-12-22T03:54:00.056Z,100184.03
2022-12-22T03:56:23.748Z,100192.91
2022-12-22T03:58:47.386Z,100188.53
2022-12-22T04:01:11.107Z,100166.78
2022-12-22T04:03:34.916Z,100170.56
2022-12-22T04:06:00.241Z,100161.72
2022-12-22T04:08:23.863Z,100156.75
2022-12-22T04:11:05.195Z,100160.25
2022-12-22T04:13:28.872Z,100160.50
2022-12-22T04:15:52.469Z,100156.63
2022-12-22T04:18:16.097Z,100163.63
2022-12-22T04:20:39.740Z,100155.53
2022-12-22T04:23:05.277Z,100161.88
2022-12-22T04:25:29.726Z,100155.78
2022-12-22T04:27:53.490Z,100157.13
2022-12-22T04:30:17.556Z,100157.75
2022-12-22T04:32:41.271Z,100152.03
2022-12-22T04:35:05.627Z,100158.56
2022-12-22T04:37:29.505Z,100149.47
2022-12-22T04:39:54.476Z,100140.59
2022-12-22T04:42:18.298Z,100146.91
2022-12-22T04:44:41.892Z,100137.22
2022-12-22T04:47:05.636Z,100133.31
2022-12-22T04:49:29.288Z,100133.78
2022-12-22T04:51:52.924Z,100125.06
2022-12-22T04:54:16.715Z,100120.44
2022-12-22T04:56:41.769Z,100124.31
2022-12-22T04:59:05.419Z,100119.72
2022-12-22T05:01:29.588Z,100120.91
2022-12-22T05:03:53.273Z,100111.41
2022-12-22T05:06:17.193Z,100110.44
2022-12-22T05:08:41.010Z,100109.72
2022-12-22T05:11:04.872Z,100102.16
2022-12-22T05:13:30.003Z,100105.72
2022-12-22T05:15:53.674Z,100096.47
2022-12-22T05:18:17.237Z,100098.78
2022-12-22T05:20:40.928Z,100095.88
2022-12-22T05:23:04.564Z,100094.53
2022-12-22T05:25:34.412Z,100091.00
2022-12-22T05:27:59.673Z,100088.34
2022-12-22T05:30:24.714Z,100079.34
2022-12-22T05:32:49.054Z,100091.00
2022-12-22T05:35:13.143Z,100073.22
2022-12-22T05:37:37.250Z,100079.34
2022-12-22T05:40:00.976Z,100070.94
2022-12-22T05:42:36.862Z,100061.31
2022-12-22T05:45:00.526Z,100075.31
2022-12-22T05:47:25.532Z,100062.78
2022-12-22T05:49:49.188Z,100057.97
2022-12-22T05:52:12.757Z,100052.31
2022-12-22T05:54:36.427Z,100056.56
2022-12-22T05:57:00.010Z,100053.91
2022-12-22T05:59:23.731Z,100049.53
2022-12-22T06:01:47.387Z,100047.34
2022-12-22T06:04:12.619Z,100036.19
2022-12-22T06:06:36.393Z,100040.03
2022-12-22T06:09:00.115Z,100033.72
2022-12-22T06:11:23.724Z,100028.06
2022-12-22T06:13:47.635Z,100034.03
2022-12-22T06:16:11.308Z,100025.59
2022-12-22T06:18:35.008Z,100021.09
2022-12-22T06:21:00.013Z,100023.97
2022-12-22T06:23:24.171Z,100027.94
2022-12-22T06:25:56.959Z,100013.13
2022-12-22T06:28:20.611Z,100012.75
2022-12-22T06:30:44.296Z,100001.03
2022-12-22T06:33:07.933Z,99994.09
2022-12-22T06:35:31.765Z,99993.28
2022-12-22T06:37:56.949Z,100004.47
2022-12-22T06:40:20.758Z,99998.44
2022-12-22T06:43:08.022Z,100000.03
2022-12-22T06:45:32.244Z,100000.28
2022-12-22T06:47:56.193Z,99994.25
2022-12-22T06:50:19.981Z,99997.66
2022-12-22T06:52:43.554Z,99993.50
2022-12-22T06:55:10.049Z,99999.50
2022-12-22T06:57:33.728Z,99998.97
2022-12-22T06:59:58.047Z,99994.41
2022-12-22T07:02:22.087Z,99995.59
2022-12-22T07:04:46.498Z,100000.69
2022-12-22T07:07:10.119Z,99997.63
2022-12-22T07:09:33.833Z,99997.09
2022-12-22T07:11:58.856Z,99978.75
2022-12-22T07:14:22.738Z,99983.44
2022-12-22T07:16:47.111Z,99984.28
2022-12-22T07:19:11.033Z,99978.41
2022-12-22T07:21:34.664Z,99977.63
2022-12-22T07:23:58.480Z,99971.22
2022-12-22T07:26:22.117Z,99961.06
2022-12-22T07:28:47.210Z,99960.41
2022-12-22T07:31:12.101Z,99964.47
2022-12-22T07:33:35.957Z,99967.69
2022-12-22T07:36:05.953Z,99966.78
2022-12-22T07:38:29.606Z,99966.53
2022-12-22T07:41:04.591Z,99964.53
2022-12-22T07:43:28.207Z,99968.81
2022-12-22T07:45:53.374Z,99955.72
2022-12-22T07:48:34.136Z,99951.44
2022-12-22T07:51:03.423Z,99947.94
2022-12-22T07:53:27.042Z,99945.47
2022-12-22T07:55:50.686Z,99952.38
2022-12-22T07:58:14.283Z,99946.81
2022-12-22T08:00:37.951Z,99946.22
2022-12-22T08:03:03.155Z,99946.31
2022-12-22T08:05:27.436Z,99942.56
2022-12-22T08:07:52.891Z,99941.28
2022-12-22T08:10:17.395Z,99944.91
2022-12-22T08:12:41.300Z,99940.13
2022-12-22T08:15:05.738Z,99931.63
2022-12-22T08:17:29.680Z,99934.31
2022-12-22T08:19:54.879Z,99931.69
2022-12-22T08:22:18.537Z,99926.41
2022-12-22T08:24:42.204Z,99923.75
2022-12-22T08:27:12.121Z,99923.13
2022-12-22T08:29:40.703Z,99926.63
2022-12-22T08:32:05.131Z,99922.75
2022-12-22T08:34:29.001Z,99915.13
2022-12-22T08:36:58.431Z,99914.00
2022-12-22T08:39:25.217Z,99913.50
2022-12-22T08:41:52.020Z,99912.41
2022-12-22T08:44:15.739Z,99915.75
2022-12-22T08:46:39.370Z,99911.88
2022-12-22T08:49:03.017Z,99912.50
2022-12-22T08:51:26.745Z,99909.22
2022-12-22T08:54:07.354Z,99906.16
2022-12-22T08:56:32.251Z,99902.84
2022-12-22T08:58:55.814Z,99908.19
2022-12-22T09:01:21.500Z,99894.47
2022-12-22T09:03:49.479Z,99904.22
2022-12-22T09:06:13.130Z,99892.72
2022-12-22T09:08:36.713Z,99895.47
2022-12-22T09:11:06.330Z,99897.81
2022-12-22T09:13:29.911Z,99897.50
2022-12-22T09:15:53.636Z,99891.03
2022-12-22T09:18:17.223Z,99895.56
2022-12-22T09:20:40.918Z,99887.19
2022-12-22T09:23:04.599Z,99890.78
2022-12-22T09:25:28.434Z,99885.44
2022-12-22T09:27:53.459Z,99876.97
2022-12-22T09:30:17.488Z,99873.25
2022-12-22T09:32:41.075Z,99876.81
2022-12-22T09:35:05.271Z,99870.31
2022-12-22T09:37:28.933Z,99871.81
2022-12-22T09:39:52.589Z,99871.88
2022-12-22T09:42:20.522Z,99870.91
2022-12-22T09:44:50.351Z,99863.88
2022-12-22T09:47:22.865Z,99859.59
2022-12-22T09:49:46.854Z,99853.16
2022-12-22T09:52:26.390Z,99849.91
2022-12-22T09:54:50.970Z,99851.03
2022-12-22T09:57:14.804Z,99845.69
2022-12-22T09:59:38.471Z,99842.84
2022-12-22T10:02:16.951Z,99847.41
2022-12-22T10:05:02.218Z,99849.53
2022-12-22T10:07:32.436Z,99849.25
2022-12-22T10:09:56.828Z,99848.97
2022-12-22T10:12:23.994Z,99840.28
2022-12-22T10:14:50.418Z,99839.75
2022-12-22T10:17:26.044Z,99834.41
2022-12-22T10:19:51.407Z,99834.41
2022-12-22T10:22:31.205Z,99832.69
2022-12-22T10:24:55.211Z,99835.13
2022-12-22T10:27:25.822Z,99835.97
2022-12-22T10:29:53.348Z,99823.53
2022-12-22T10:32:21.091Z,99820.88
2022-12-22T10:35:03.219Z,99818.56
2022-12-22T10:37:34.479Z,99822.97
2022-12-22T10:39:58.250Z,99819.75
2022-12-22T10:42:22.036Z,99808.00
2022-12-22T10:44:49.548Z,99807.88
2022-12-22T10:47:18.177Z,99804.22
2022-12-22T10:49:48.068Z,99801.66
2022-12-22T10:52:15.306Z,99798.44
2022-12-22T10:54:41.156Z,99807.31
2022-12-22T10:57:12.437Z,99799.09
2022-12-22T10:59:49.277Z,99794.84
2022-12-22T11:02:35.362Z,99793.72
2022-12-22T11:05:08.723Z,99800.31
2022-12-22T11:07:35.643Z,99790.06
2022-12-22T11:09:59.434Z,99794.31
2022-12-22T11:12:30.787Z,99790.63
2022-12-22T11:15:02.135Z,99793.97
2022-12-22T11:17:34.840Z,99787.78
2022-12-22T11:20:34.485Z,99774.53
2022-12-22T11:23:04.788Z,99774.53
2022-12-22T11:25:41.406Z,99766.66
2022-12-22T11:28:36.812Z,99772.81
2022-12-22T11:31:18.990Z,99772.22
2022-12-22T11:34:00.423Z,99770.38
2022-12-22T11:36:39.323Z,99771.97
2022-12-22T11:39:10.158Z,99771.31
2022-12-22T11:41:51.406Z,99769.22
2022-12-22T11:44:38.720Z,99763.13
2022-12-22T11:47:11.874Z,99757.50
2022-12-22T11:50:59.470Z,99757.91
2022-12-22T11:53:16.147Z,99754.34
2022-12-22T11:55:44.497Z,99752.13
2022-12-22T11:58:33.648Z,99753.97
2022-12-22T12:01:17.894Z,99751.81
2022-12-22T12:04:39.389Z,99739.88
2022-12-22T12:07:23.522Z,99745.56
2022-12-22T12:10:05.189Z,99737.50
2022-12-22T12:12:39.848Z,99740.28
2022-12-22T12:15:26.820Z,99743.50
2022-12-22T12:18:40.634Z,99750.63
2022-12-22T12:21:27.254Z,99746.34
2022-12-22T12:24:25.779Z,99746.28
2022-12-22T12:27:01.158Z,99748.75
2022-12-22T12:29:28.271Z,99741.28
2022-12-22T12:31:59.682Z,99743.34
2022-12-22T12:34:24.305Z,99750.06
2022-12-22T12:36:53.360Z,99746.66
2022-12-22T12:39:25.508Z,99751.00
2022-12-22T12:42:02.179Z,99745.25
2022-12-22T12:44:32.442Z,99745.25
2022-12-22T12:47:08.260Z,99747.13
2022-12-22T12:50:27.991Z,99741.13
2022-12-22T12:53:16.750Z,99733.63
2022-12-22T12:56:13.424Z,99738.19
2022-12-22T12:58:58.309Z,99734.34
2022-12-22T13:02:00.807Z,99740.22
2022-12-22T13:05:15.870Z,99749.03
2022-12-22T13:08:16.862Z,99746.78
2022-12-22T13:10:45.781Z,99751.16
2022-12-22T13:13:52.184Z,99756.97
2022-12-22T13:16:39.822Z,99749.84
2022-12-22T13:19:21.259Z,99753.34
2022-12-22T13:21:55.129Z,99754.06
2022-12-22T13:24:26.318Z,99762.47
2022-12-22T13:26:55.323Z,99763.75
2022-12-22T13:29:29.148Z,99767.16
2022-12-22T13:31:59.377Z,99773.28
2022-12-22T13:35:04.204Z,99777.19
2022-12-22T13:37:26.885Z,99781.91
2022-12-22T13:40:17.225Z,99778.34
2022-12-22T13:42:44.163Z,99785.25
2022-12-22T13:45:16.752Z,99788.56
2022-12-22T13:47:44.513Z,99798.00
2022-12-22T13:50:17.548Z,99791.59
2022-12-22T13:52:42.295Z,99793.19
2022-12-22T13:55:15.224Z,99796.06
2022-12-22T13:57:41.256Z,99799.31
2022-12-22T14:00:05.932Z,99800.41
2022-12-22T14:02:35.090Z,99804.00
2022-12-22T14:05:10.805Z,99803.44
2022-12-22T14:07:34.525Z,99799.84
2022-12-22T14:09:58.781Z,99799.63
2022-12-22T14:12:24.927Z,99814.75
2022-12-22T14:14:51.462Z,99810.63
2022-12-22T14:17:23.963Z,99822.91
2022-12-22T14:19:52.180Z,99827.03
2022-12-22T14:22:21.144Z,99828.19
2022-12-22T14:24:49.110Z,99830.16
2022-12-22T14:27:20.572Z,99835.75
2022-12-22T14:29:44.330Z,99842.28
2022-12-22T14:32:08.140Z,99841.72
2022-12-22T14:34:35.429Z,99845.94
2022-12-22T14:37:02.494Z,99856.41
2022-12-22T14:39:30.886Z,99860.34
2022-12-22T14:41:57.486Z,99861.66
2022-12-22T14:44:24.998Z,99864.03
2022-12-22T14:47:16.221Z,99870.84
2022-12-22T14:49:48.213Z,99863.47
2022-12-22T14:52:25.677Z,99865.19
2022-12-22T14:54:54.001Z,99868.44
2022-12-22T14:57:24.992Z,99862.63
2022-12-22T15:00:06.095Z,99870.25
2022-12-22T15:02:39.135Z,99888.47
2022-12-22T15:05:16.101Z,99884.94
2022-12-22T15:08:06.552Z,99893.13
2022-12-22T15:10:40.624Z,99890.31
2022-12-22T15:13:09.275Z,99890.44
2022-12-22T15:15:34.683Z,99900.75
2022-12-22T15:17:58.760Z,99908.38
2022-12-22T15:20:25.692Z,99917.97
2022-12-22T15:22:49.967Z,99913.44
2022-12-22T15:25:19.599Z,99919.94
2022-12-22T15:27:44.795Z,99929.53
2022-12-22T15:30:10.138Z,99929.97
2022-12-22T15:32:37.898Z,99940.56
2022-12-22T15:35:03.460Z,99947.03
2022-12-22T15:37:27.129Z,99950.00
2022-12-22T15:39:51.078Z,99942.94
2022-12-22T15:42:14.847Z,99949.56
2022-12-22T15:44:39.904Z,99955.78
2022-12-22T15:47:03.650Z,99957.69
2022-12-22T15:49:29.331Z,99959.69
2022-12-22T15:51:57.195Z,99970.38
2022-12-22T15:54:21.352Z,99970.94
2022-12-22T15:56:45.419Z,99967.28
2022-12-22T15:59:16.547Z,99980.53
2022-12-22T16:01:41.876Z,99988.78
2022-12-22T16:04:05.917Z,99996.38
2022-12-22T16:06:29.947Z,99999.59
2022-12-22T16:08:55.172Z,100004.78
2022-12-22T16:11:19.691Z,100001.97
2022-12-22T16:13:43.588Z,99997.88
2022-12-22T16:16:08.596Z,100001.94
2022-12-22T16:18:34.502Z,99999.50
2022-12-22T16:21:07.305Z,99998.97
2022-12-22T16:23:31.200Z,100004.88
2022-12-22T16:26:01.737Z,100010.31
2022-12-22T16:28:27.376Z,100014.25
2022-12-22T16:30:52.576Z,100019.97
2022-12-22T16:33:17.556Z,100026.75
2022-12-22T16:35:43.351Z,100034.53
2022-12-22T16:38:08.188Z,100032.28
2022-12-22T16:40:35.851Z,100039.25
2022-12-22T16:45:47.845Z,100046.16
2022-12-22T16:48:17.631Z,100040.47
2022-12-22T16:50:47.953Z,100048.25
2022-12-22T16:53:14.563Z,100051.47
2022-12-22T16:55:38.299Z,100050.19
2022-12-22T16:58:05.558Z,100052.34
2022-12-22T17:00:38.072Z,100049.81
2022-12-22T17:03:06.409Z,100058.09
2022-12-22T17:05:40.413Z,100054.94
2022-12-22T17:08:18.855Z,100065.13
2022-12-22T17:10:42.571Z,100072.66
2022-12-22T17:13:06.217Z,100068.38
2022-12-22T17:15:30.031Z,100076.22
2022-12-22T17:17:54.640Z,100065.50
2022-12-22T17:20:21.084Z,100066.41
2022-12-22T17:22:49.359Z,100073.34
2022-12-22T17:25:20.664Z,100072.44
2022-12-22T17:27:44.586Z,100076.84
2022-12-22T17:30:18.406Z,100086.34
2022-12-22T17:32:42.413Z,100085.50
2022-12-22T17:35:06.823Z,100086.41
2022-12-22T17:37:30.951Z,100086.34
2022-12-22T17:39:58.832Z,100087.19
2022-12-22T17:42:25.584Z,100089.81
2022-12-22T17:44:50.021Z,100082.03
2022-12-22T17:47:16.035Z,100080.88
2022-12-22T17:49:39.675Z,100078.97
2022-12-22T17:52:03.464Z,100079.97
2022-12-22T17:54:28.967Z,100089.50
2022-12-22T17:56:53.199Z,100088.41
2022-12-22T17:59:18.456Z,100083.84
2022-12-22T18:01:42.451Z,100091.75
2022-12-22T18:04:09.743Z,100098.22
2022-12-22T18:06:36.237Z,100102.47
2022-12-22T18:09:00.112Z,100099.13
2022-12-22T18:11:24.489Z,100107.84
2022-12-22T18:13:48.182Z,100111.00
2022-12-22T18:16:18.631Z,100116.38
2022-12-22T18:18:42.577Z,100113.00
2022-12-22T18:21:08.233Z,100118.00
2022-12-22T18:23:34.241Z,100119.34
2022-12-22T18:25:58.214Z,100121.66
2022-12-22T18:28:22.029Z,100119.41
2022-12-22T18:30:46.183Z,100117.59
2022-12-22T18:33:12.119Z,100107.00
2022-12-22T18:35:36.381Z,100102.97
2022-12-22T18:38:00.595Z,100097.03
2022-12-22T18:40:28.800Z,100104.47
2022-12-22T18:42:53.848Z,100105.69
2022-12-22T18:45:18.030Z,100100.59
2022-12-22T18:47:41.739Z,100104.84
2022-12-22T18:50:08.509Z,100112.44
2022-12-22T18:52:32.508Z,100117.38
2022-12-22T18:54:56.276Z,100117.47
2022-12-22T18:57:21.622Z,100114.19
2022-12-22T18:59:46.098Z,100113.31
2022-12-22T19:02:23.443Z,100115.41
2022-12-22T19:04:47.473Z,100119.72
2022-12-22T19:07:17.493Z,100120.53
2022-12-22T19:09:42.762Z,100119.06
2022-12-22T19:12:06.952Z,100111.78
2022-12-22T19:14:31.111Z,100106.09
2022-12-22T19:16:56.037Z,100113.75
2022-12-22T19:19:21.889Z,100112.16
2022-12-22T19:21:45.701Z,100124.31
2022-12-22T19:24:11.063Z,100126.00
2022-12-22T19:26:34.909Z,100116.53
2022-12-22T19:29:01.305Z,100120.41
2022-12-22T19:31:27.667Z,100111.69
2022-12-22T19:33:51.913Z,100112.06
2022-12-22T19:36:18.965Z,100112.66
2022-12-22T19:38:46.002Z,100116.91
2022-12-22T19:41:29.049Z,100118.47
2022-12-22T19:43:52.864Z,100123.09
2022-12-22T19:46:16.590Z,100118.47
2022-12-22T19:48:40.611Z,100122.81
2022-12-22T19:51:04.409Z,100119.41
2022-12-22T19:53:28.084Z,100116.75
2022-12-22T19:55:54.164Z,100107.72
2022-12-22T19:58:23.343Z,100109.03
2022-12-22T20:00:48.201Z,100105.88
2022-12-22T20:03:13.585Z,100100.50
2022-12-22T20:05:38.206Z,100101.84
2022-12-22T20:08:02.934Z,100099.75
2022-12-22T20:10:28.519Z,100101.03
2022-12-22T20:12:55.730Z,100108.78
2022-12-22T20:15:24.294Z,100109.25
2022-12-22T20:17:49.012Z,100102.94
2022-12-22T20:20:15.838Z,100110.59
2022-12-22T20:22:39.877Z,100106.09
2022-12-22T20:25:03.623Z,100115.53
2022-12-22T20:27:34.454Z,100114.41
2022-12-22T20:29:58.183Z,100116.72
2022-12-22T20:32:28.059Z,100114.28
2022-12-22T20:34:52.303Z,100113.16
2022-12-22T20:37:18.136Z,100112.00
2022-12-22T20:39:41.939Z,100116.69
2022-12-22T20:42:05.693Z,100115.22
2022-12-22T20:44:29.487Z,100111.47
2022-12-22T20:46:53.167Z,100104.75
2022-12-22T20:49:18.501Z,100102.44
2022-12-22T20:51:42.558Z,100104.25
2022-12-22T20:54:11.479Z,100105.00
2022-12-22T20:56:38.702Z,100101.81
2022-12-22T20:59:14.336Z,100105.13
2022-12-22T21:01:38.172Z,100107.88
2022-12-22T21:04:01.855Z,100111.63
2022-12-22T21:06:30.858Z,100111.97
2022-12-22T21:08:56.298Z,100115.25
2022-12-22T21:11:20.166Z,100111.34
2022-12-22T21:13:43.810Z,100117.91
2022-12-22T21:16:12.872Z,100120.59
2022-12-22T21:18:36.541Z,100129.56
2022-12-22T21:21:00.260Z,100118.16
2022-12-22T21:23:25.403Z,100128.25
2022-12-22T21:25:54.419Z,100121.47
2022-12-22T21:28:25.306Z,100116.34
2022-12-22T21:30:49.136Z,100122.00
2022-12-22T21:33:12.834Z,100108.06
2022-12-22T21:35:37.993Z,100106.78
2022-12-22T21:38:01.882Z,100101.69
2022-12-22T21:40:29.613Z,100096.13
2022-12-22T21:42:54.254Z,100100.03
2022-12-22T21:45:20.939Z,100096.31
2022-12-22T21:47:45.066Z,100101.84
2022-12-22T21:50:15.849Z,100109.13
2022-12-22T21:52:39.557Z,100109.75
2022-12-22T21:55:05.287Z,100110.00
2022-12-22T21:57:30.354Z,100105.53
2022-12-22T21:59:54.046Z,100094.94
2022-12-22T22:02:19.684Z,100094.31
2022-12-22T22:04:48.360Z,100092.41
2022-12-22T22:07:17.572Z,100093.72
2022-12-22T22:09:41.219Z,100094.34
2022-12-22T22:12:28.072Z,100095.31
2022-12-22T22:14:53.436Z,100088.66
2022-12-22T22:17:17.076Z,100099.69
2022-12-22T22:19:40.812Z,100089.97
2022-12-22T22:22:04.634Z,100091.97
2022-12-22T22:24:28.462Z,100086.75
2022-12-22T22:26:52.243Z,100093.56
2022-12-22T22:29:16.175Z,100090.25
2022-12-22T22:31:41.802Z,100094.69
2022-12-22T22:34:05.521Z,100097.53
2022-12-22T22:36:29.192Z,100091.25
2022-12-22T22:38:53.142Z,100097.75
2022-12-22T22:41:16.768Z,100088.66
2022-12-22T22:43:40.502Z,100102.13
2022-12-22T22:46:04.185Z,100083.94
2022-12-22T22:48:29.281Z,100083.47
2022-12-22T22:50:53.595Z,100089.13
2022-12-22T22:53:17.363Z,100071.28
2022-12-22T22:55:41.053Z,100078.75
2022-12-22T22:58:04.802Z,100070.69
2022-12-22T23:00:28.501Z,100068.88
2022-12-22T23:02:52.240Z,100072.50
2022-12-22T23:05:22.662Z,100079.06
2022-12-22T23:07:47.357Z,100067.78
2022-12-22T23:10:11.791Z,100064.09
2022-12-22T23:12:35.569Z,100059.84
2022-12-22T23:15:00.876Z,100065.25
2022-12-22T23:17:25.083Z,100050.06
2022-12-22T23:19:48.705Z,100048.66
2022-12-22T23:22:13.865Z,100049.44
2022-12-22T23:24:37.774Z,100049.69
2022-12-22T23:27:01.471Z,100042.06
2022-12-22T23:29:25.337Z,100033.25
2022-12-22T23:31:49.059Z,100040.13
2022-12-22T23:34:13.630Z,100035.09
2022-12-22T23:36:37.281Z,100020.78
2022-12-22T23:39:02.339Z,100024.41
2022-12-22T23:41:26.093Z,100017.44
2022-12-22T23:43:49.813Z,100021.06
2022-12-22T23:46:16.949Z,100023.38
2022-12-22T23:48:41.620Z,100025.25
2022-12-22T23:51:06.028Z,100026.97
2022-12-22T23:53:29.722Z,100024.47
2022-12-22T23:55:54.734Z,100011.06
2022-12-22T23:58:19.100Z,99998.50
